SLCB/CBB METAR and TAF weather

Enter ICAO airport designator
Station Type Date Time Source
SLCB METAR 2019/12/09 14:00 UTC NOAA

SLCB 091400Z 27004KT 9999 SCT030 BKN200 23/09 Q1023


Station Type Date Time Source
SLCB Decoded METAR 2019/12/09 14:00 UTC NOAA

Cochabamba, Bolivia (SLCB) 17-25S 066-11W 2570M
Dec 09, 2019 - 09:00 AM EST / 2019.12.09 1400 UTC
Wind: from the W (270 degrees) at 5 MPH (4 KT):0
Visibility: greater than 7 mile(s):0
Sky conditions: mostly cloudy
Temperature: 73 F (23 C)
Dew Point: 48 F (9 C)
Relative Humidity: 40%
Pressure (altimeter): 30.21 in. Hg (1023 hPa)
ob: SLCB 091400Z 27004KT 9999 SCT030 BKN200 23/09 Q1023
cycle: 14

Station Type Date Time Source
SLCB TAF 2019/12/09 12:51 UTC NOAA

TAF TAF SLCB 091000Z 0912/1012 12005KT 9999 FEW030 TX28/0919Z TN13/1011Z
BECMG 0915/0917 24012KT SCT036 FEW039CB
TEMPO 0918/0920 06015KT 8000 TSRA
BECMG 1002/1004 14005KT SCT027 BKN070

Example: see airport list